Wetterdaten: Woche 07.09.15 - 13.09.15 (KW37)
Datum Zeit Temp. A. Feuchte A. Luftdruck Regen Wind Richtung Taupunkt Windchill Windben
07.09.2015 00:00 14,0 C 59 % 1020,6 hPa 0,0 l/m 13,6 km/h N 6,1 C 10,5 C 31,0 km/h
07.09.2015 01:00 13,7 C 60 % 1020,6 hPa 0,0 l/m 10,8 km/h N 6,2 C 11,5 C 29,3 km/h
07.09.2015 02:00 13,4 C 62 % 1020,4 hPa 0,0 l/m 10,6 km/h N 6,2 C 11,2 C 30,6 km/h
07.09.2015 03:00 13,1 C 63 % 1020,4 hPa 0,0 l/m 9,8 km/h N 6,2 C 11,2 C 28,6 km/h
07.09.2015 04:00 13,0 C 63 % 1020,0 hPa 0,0 l/m 10,1 km/h N 6,1 C 10,8 C 29,4 km/h
07.09.2015 05:00 12,8 C 62 % 1019,9 hPa 0,0 l/m 14,1 km/h N 5,8 C 8,9 C 35,4 km/h
07.09.2015 06:00 12,7 C 63 % 1020,3 hPa 0,0 l/m 11,4 km/h N 5,9 C 9,9 C 29,8 km/h
07.09.2015 07:00 12,9 C 63 % 1020,8 hPa 0,0 l/m 9,3 km/h N 6,0 C 11,2 C 26,1 km/h
07.09.2015 08:00 13,4 C 62 % 1021,0 hPa 0,0 l/m 12,7 km/h N 6,2 C 10,2 C 31,4 km/h
07.09.2015 09:00 13,3 C 62 % 1021,3 hPa 0,0 l/m 10,2 km/h N 6,3 C 11,3 C 29,8 km/h
07.09.2015 10:00 13,9 C 61 % 1021,7 hPa 0,0 l/m 8,1 km/h N 6,5 C 12,8 C 22,9 km/h
07.09.2015 11:00 14,8 C 60 % 1021,5 hPa 0,0 l/m 12,6 km/h N 7,0 C 11,9 C 27,8 km/h
07.09.2015 12:00 15,6 C 56 % 1021,3 hPa 0,0 l/m 12,7 km/h N 6,8 C 12,8 C 34,6 km/h
07.09.2015 13:00 16,0 C 56 % 1021,2 hPa 0,0 l/m 11,9 km/h N 7,2 C 13,5 C 33,8 km/h
07.09.2015 14:00 15,7 C 56 % 1021,1 hPa 0,0 l/m 13,0 km/h N 6,9 C 12,7 C 33,8 km/h
07.09.2015 15:00 15,7 C 58 % 1020,9 hPa 0,0 l/m 14,6 km/h N 7,4 C 12,2 C 34,6 km/h
07.09.2015 16:00 15,5 C 59 % 1020,9 hPa 0,0 l/m 12,6 km/h N 7,5 C 12,6 C 34,2 km/h
07.09.2015 17:00 14,8 C 61 % 1020,9 hPa 0,0 l/m 14,0 km/h N 7,3 C 11,3 C 32,2 km/h
07.09.2015 18:00 14,7 C 61 % 1021,0 hPa 0,0 l/m 11,0 km/h N 7,3 C 12,4 C 29,8 km/h
07.09.2015 19:00 14,3 C 66 % 1020,9 hPa 0,0 l/m 13,6 km/h N 8,0 C 10,8 C 33,0 km/h
07.09.2015 20:00 14,0 C 69 % 1021,5 hPa 0,0 l/m 14,1 km/h N 8,5 C 10,4 C 36,6 km/h
07.09.2015 21:00 12,9 C 77 % 1022,1 hPa 0,3 l/m 11,8 km/h N 8,9 C 9,9 C 31,0 km/h
07.09.2015 22:00 12,6 C 78 % 1022,2 hPa 0,0 l/m 8,1 km/h N 8,8 C 11,2 C 23,8 km/h
07.09.2015 23:00 12,2 C 79 % 1022,6 hPa 0,0 l/m 5,8 km/h N 8,5 C 12,0 C 19,7 km/h
08.09.2015 00:00 12,2 C 79 % 1022,7 hPa 0,0 l/m 6,5 km/h N 8,6 C 11,8 C 19,7 km/h
08.09.2015 01:00 12,2 C 79 % 1022,8 hPa 0,0 l/m 3,5 km/h N 8,6 C 12,2 C 15,3 km/h
08.09.2015 02:00 12,2 C 79 % 1022,6 hPa 0,0 l/m 4,3 km/h N 8,6 C 12,2 C 17,3 km/h
08.09.2015 03:00 11,8 C 80 % 1022,7 hPa 0,0 l/m 3,9 km/h N 8,4 C 11,8 C 14,5 km/h
08.09.2015 04:00 11,5 C 81 % 1022,8 hPa 0,0 l/m 3,0 km/h N 8,3 C 11,5 C 11,7 km/h
08.09.2015 05:00 11,4 C 81 % 1022,9 hPa 0,0 l/m 4,3 km/h N 8,3 C 11,4 C 14,5 km/h
08.09.2015 06:00 11,6 C 79 % 1022,9 hPa 0,0 l/m 5,9 km/h N 8,2 C 11,5 C 16,5 km/h
08.09.2015 07:00 11,8 C 79 % 1023,0 hPa 0,0 l/m 4,3 km/h N 8,2 C 11,8 C 15,7 km/h
08.09.2015 08:00 12,3 C 77 % 1023,0 hPa 0,0 l/m 5,4 km/h N 8,4 C 12,1 C 17,7 km/h
08.09.2015 09:00 13,9 C 73 % 1023,1 hPa 0,0 l/m 8,1 km/h N 9,2 C 12,9 C 19,3 km/h
08.09.2015 10:00 15,3 C 65 % 1023,2 hPa 0,0 l/m 6,6 km/h N 8,8 C 15,0 C 16,9 km/h
08.09.2015 11:00 16,1 C 54 % 1023,0 hPa 0,0 l/m 7,0 km/h N 6,6 C 15,8 C 16,5 km/h
08.09.2015 12:00 16,8 C 50 % 1022,7 hPa 0,0 l/m 7,8 km/h N 6,3 C 16,0 C 22,1 km/h
08.09.2015 13:00 17,4 C 49 % 1022,3 hPa 0,0 l/m 6,8 km/h N 6,5 C 16,8 C 19,7 km/h
08.09.2015 14:00 17,5 C 49 % 1022,0 hPa 0,0 l/m 7,1 km/h N 6,6 C 17,0 C 19,7 km/h
08.09.2015 15:00 17,6 C 48 % 1021,6 hPa 0,0 l/m 8,2 km/h N 6,3 C 16,7 C 21,3 km/h
08.09.2015 16:00 17,5 C 46 % 1021,3 hPa 0,0 l/m 7,2 km/h N 5,9 C 17,1 C 18,1 km/h
08.09.2015 17:00 17,4 C 46 % 1020,9 hPa 0,0 l/m 5,5 km/h N 5,6 C 17,3 C 18,5 km/h
08.09.2015 18:00 17,1 C 47 % 1020,6 hPa 0,0 l/m 3,4 km/h N 5,6 C 17,1 C 14,5 km/h
08.09.2015 19:00 15,9 C 52 % 1020,5 hPa 0,0 l/m 0,7 km/h N 5,9 C 15,9 C 3,2 km/h
08.09.2015 20:00 13,1 C 61 % 1020,9 hPa 0,0 l/m 0,0 km/h N 5,6 C 13,1 C 0,0 km/h
08.09.2015 21:00 10,8 C 70 % 1021,3 hPa 0,0 l/m 0,0 km/h N 5,6 C 10,8 C 0,0 km/h
08.09.2015 22:00 9,5 C 75 % 1021,6 hPa 0,0 l/m 0,0 km/h N 5,3 C 9,5 C 0,0 km/h
08.09.2015 23:00 8,7 C 78 % 1021,7 hPa 0,0 l/m 0,0 km/h N 5,1 C 8,7 C 0,0 km/h
09.09.2015 00:00 9,1 C 79 % 1021,6 hPa 0,0 l/m 0,3 km/h N 5,6 C 9,1 C 2,8 km/h
09.09.2015 01:00 9,9 C 75 % 1021,2 hPa 0,0 l/m 0,1 km/h N 5,6 C 9,9 C 1,6 km/h
09.09.2015 02:00 9,3 C 76 % 1020,8 hPa 0,0 l/m 0,0 km/h N 5,2 C 9,3 C 0,8 km/h
09.09.2015 03:00 9,4 C 77 % 1020,4 hPa 0,0 l/m 0,0 km/h N 5,5 C 9,4 C 0,4 km/h
09.09.2015 04:00 10,0 C 75 % 1020,3 hPa 0,0 l/m 0,0 km/h N 5,7 C 10,0 C 0,0 km/h
09.09.2015 05:00 10,3 C 74 % 1020,2 hPa 0,0 l/m 0,0 km/h N 5,8 C 10,3 C 0,0 km/h
09.09.2015 06:00 9,9 C 75 % 1020,4 hPa 0,0 l/m 0,1 km/h N 5,7 C 9,9 C 0,8 km/h
09.09.2015 07:00 9,6 C 79 % 1020,6 hPa 0,0 l/m 0,0 km/h N 6,2 C 9,6 C 0,0 km/h
09.09.2015 08:00 10,8 C 80 % 1020,6 hPa 0,0 l/m 0,0 km/h N 7,5 C 10,8 C 0,0 km/h
09.09.2015 09:00 13,9 C 70 % 1020,8 hPa 0,0 l/m 2,8 km/h N 8,6 C 13,9 C 8,8 km/h
09.09.2015 10:00 14,8 C 68 % 1021,2 hPa 0,0 l/m 2,2 km/h N 8,9 C 14,8 C 8,0 km/h
09.09.2015 11:00 15,4 C 68 % 1021,3 hPa 0,0 l/m 2,9 km/h N 9,4 C 15,4 C 11,3 km/h
09.09.2015 12:00 16,0 C 66 % 1021,2 hPa 0,0 l/m 4,9 km/h N 9,6 C 16,0 C 15,7 km/h
09.09.2015 13:00 16,5 C 66 % 1021,2 hPa 0,0 l/m 4,1 km/h N 10,2 C 16,5 C 12,5 km/h
09.09.2015 14:00 16,5 C 67 % 1021,2 hPa 0,0 l/m 5,1 km/h N 10,2 C 16,4 C 16,1 km/h
09.09.2015 15:00 14,5 C 74 % 1021,4 hPa 0,0 l/m 6,2 km/h N 9,9 C 14,2 C 18,1 km/h
09.09.2015 16:00 13,5 C 80 % 1021,5 hPa 0,3 l/m 4,8 km/h N 10,1 C 13,5 C 14,1 km/h
09.09.2015 17:00 13,1 C 81 % 1021,8 hPa 0,0 l/m 3,7 km/h N 10,0 C 13,1 C 10,9 km/h
09.09.2015 18:00 12,7 C 82 % 1021,8 hPa 0,0 l/m 0,6 km/h N 9,7 C 12,7 C 6,4 km/h
09.09.2015 19:00 12,3 C 82 % 1021,9 hPa 0,0 l/m 1,1 km/h N 9,3 C 12,3 C 6,4 km/h
09.09.2015 20:00 12,1 C 82 % 1022,3 hPa 0,0 l/m 1,2 km/h N 9,2 C 12,1 C 5,6 km/h
09.09.2015 21:00 12,0 C 82 % 1022,3 hPa 0,0 l/m 0,6 km/h N 9,0 C 12,0 C 6,8 km/h
09.09.2015 22:00 11,7 C 82 % 1021,9 hPa 0,0 l/m 0,4 km/h N 8,7 C 11,7 C 4,8 km/h
09.09.2015 23:00 11,6 C 82 % 1021,6 hPa 0,0 l/m 0,6 km/h N 8,6 C 11,6 C 5,2 km/h
10.09.2015 00:00 11,5 C 82 % 1021,7 hPa 0,0 l/m 0,0 km/h N 8,6 C 11,5 C 0,0 km/h
10.09.2015 01:00 11,4 C 82 % 1021,4 hPa 0,3 l/m 0,3 km/h N 8,4 C 11,4 C 4,8 km/h
10.09.2015 02:00 11,3 C 82 % 1021,3 hPa 0,0 l/m 0,0 km/h N 8,4 C 11,3 C 1,6 km/h
10.09.2015 03:00 11,3 C 82 % 1021,2 hPa 0,0 l/m 0,1 km/h N 8,3 C 11,3 C 0,8 km/h
10.09.2015 04:00 11,1 C 82 % 1021,2 hPa 0,0 l/m 0,2 km/h N 8,2 C 11,1 C 2,8 km/h
10.09.2015 05:00 10,9 C 82 % 1020,9 hPa 0,0 l/m 0,3 km/h N 7,9 C 10,9 C 2,8 km/h
10.09.2015 06:00 10,6 C 83 % 1020,9 hPa 0,0 l/m 0,0 km/h N 7,8 C 10,6 C 0,0 km/h
10.09.2015 07:00 10,7 C 82 % 1021,2 hPa 0,0 l/m 0,2 km/h N 7,7 C 10,7 C 2,0 km/h
10.09.2015 08:00 11,7 C 82 % 1021,0 hPa 0,0 l/m 0,9 km/h N 8,8 C 11,7 C 6,0 km/h
10.09.2015 09:00 12,9 C 81 % 1021,0 hPa 0,0 l/m 2,8 km/h N 9,8 C 12,9 C 8,9 km/h
10.09.2015 10:00 14,0 C 79 % 1020,8 hPa 0,0 l/m 3,7 km/h N 10,4 C 14,0 C 10,9 km/h
10.09.2015 11:00 16,0 C 71 % 1020,5 hPa 0,0 l/m 3,9 km/h N 10,8 C 16,0 C 10,9 km/h
10.09.2015 12:00 17,6 C 62 % 1019,9 hPa 0,0 l/m 2,4 km/h N 10,2 C 17,6 C 10,1 km/h
10.09.2015 13:00 18,8 C 57 % 1019,4 hPa 0,0 l/m 3,2 km/h N 10,1 C 18,8 C 11,7 km/h
10.09.2015 14:00 18,7 C 54 % 1019,2 hPa 0,0 l/m 3,0 km/h N 9,2 C 18,7 C 10,1 km/h
10.09.2015 15:00 18,2 C 57 % 1018,9 hPa 0,0 l/m 2,7 km/h N 9,5 C 18,2 C 9,3 km/h
10.09.2015 16:00 18,5 C 55 % 1018,5 hPa 0,0 l/m 2,2 km/h N 9,3 C 18,5 C 8,8 km/h
10.09.2015 17:00 18,2 C 59 % 1018,4 hPa 0,0 l/m 2,0 km/h N 10,1 C 18,2 C 8,8 km/h
10.09.2015 18:00 18,2 C 59 % 1018,5 hPa 0,0 l/m 0,7 km/h N 10,1 C 18,2 C 6,0 km/h
10.09.2015 19:00 17,1 C 64 % 1018,5 hPa 0,0 l/m 0,0 km/h N 10,3 C 17,1 C 0,8 km/h
10.09.2015 20:00 15,3 C 71 % 1019,0 hPa 0,0 l/m 0,0 km/h N 10,1 C 15,3 C 1,6 km/h
10.09.2015 21:00 15,1 C 70 % 1019,6 hPa 0,0 l/m 1,2 km/h N 9,8 C 15,1 C 7,2 km/h
10.09.2015 22:00 14,2 C 73 % 1019,8 hPa 0,0 l/m 0,1 km/h N 9,4 C 14,2 C 1,6 km/h
10.09.2015 23:00 13,4 C 76 % 1019,8 hPa 0,0 l/m 0,0 km/h N 9,4 C 13,4 C 0,0 km/h
11.09.2015 00:00 12,9 C 78 % 1019,7 hPa 0,0 l/m 0,0 km/h N 9,1 C 12,9 C 0,0 km/h
11.09.2015 01:00 12,3 C 80 % 1019,6 hPa 0,0 l/m 0,0 km/h N 9,0 C 12,3 C 0,8 km/h
11.09.2015 02:00 12,2 C 82 % 1019,4 hPa 0,0 l/m 0,0 km/h N 9,2 C 12,2 C 0,0 km/h
11.09.2015 03:00 12,7 C 82 % 1019,3 hPa 0,0 l/m 0,2 km/h N 9,7 C 12,7 C 2,4 km/h
11.09.2015 04:00 13,3 C 82 % 1019,3 hPa 0,0 l/m 0,6 km/h N 10,3 C 13,3 C 5,6 km/h
11.09.2015 05:00 13,3 C 82 % 1019,2 hPa 0,0 l/m 0,1 km/h N 10,3 C 13,3 C 2,4 km/h
11.09.2015 06:00 13,2 C 82 % 1019,2 hPa 0,0 l/m 0,2 km/h N 10,2 C 13,2 C 5,6 km/h
11.09.2015 07:00 13,3 C 82 % 1019,4 hPa 0,0 l/m 0,4 km/h N 10,3 C 13,3 C 4,4 km/h
11.09.2015 08:00 13,8 C 82 % 1019,8 hPa 0,0 l/m 0,6 km/h N 10,8 C 13,8 C 5,6 km/h
11.09.2015 09:00 14,4 C 82 % 1019,9 hPa 0,0 l/m 0,6 km/h N 11,4 C 14,4 C 6,4 km/h
11.09.2015 10:00 14,9 C 82 % 1020,2 hPa 0,0 l/m 0,6 km/h N 11,8 C 14,9 C 6,0 km/h
11.09.2015 11:00 15,8 C 80 % 1020,1 hPa 0,0 l/m 0,7 km/h N 12,4 C 15,8 C 7,6 km/h
11.09.2015 12:00 16,6 C 78 % 1019,9 hPa 0,0 l/m 0,9 km/h N 12,8 C 16,6 C 7,2 km/h
11.09.2015 13:00 18,2 C 73 % 1019,6 hPa 0,0 l/m 1,0 km/h N 13,4 C 18,2 C 8,9 km/h
11.09.2015 14:00 18,9 C 70 % 1019,3 hPa 0,0 l/m 1,0 km/h N 13,3 C 18,9 C 10,1 km/h
11.09.2015 15:00 19,0 C 69 % 1019,0 hPa 0,0 l/m 1,5 km/h N 13,2 C 19,0 C 11,7 km/h
11.09.2015 16:00 19,4 C 67 % 1018,9 hPa 0,0 l/m 0,9 km/h N 13,1 C 19,4 C 10,1 km/h
11.09.2015 17:00 18,9 C 69 % 1018,8 hPa 0,0 l/m 0,4 km/h N 13,0 C 18,9 C 6,0 km/h
11.09.2015 18:00 18,1 C 71 % 1019,0 hPa 0,0 l/m 0,9 km/h N 12,7 C 18,1 C 8,9 km/h
11.09.2015 19:00 17,1 C 74 % 1019,3 hPa 0,0 l/m 0,3 km/h N 12,3 C 17,1 C 5,2 km/h
11.09.2015 20:00 15,8 C 76 % 1019,8 hPa 0,0 l/m 0,0 km/h N 11,6 C 15,8 C 1,2 km/h
11.09.2015 21:00 14,5 C 80 % 1020,0 hPa 0,0 l/m 0,2 km/h N 11,1 C 14,5 C 2,8 km/h
11.09.2015 22:00 14,5 C 82 % 1020,0 hPa 0,0 l/m 0,0 km/h N 11,5 C 14,5 C 0,8 km/h
11.09.2015 23:00 14,8 C 82 % 1019,8 hPa 0,0 l/m 1,0 km/h N 11,8 C 14,8 C 8,0 km/h
12.09.2015 00:00 14,5 C 82 % 1019,6 hPa 0,0 l/m 0,5 km/h N 11,4 C 14,5 C 4,4 km/h
12.09.2015 01:00 14,1 C 82 % 1019,5 hPa 0,0 l/m 0,0 km/h N 11,0 C 14,1 C 0,0 km/h
12.09.2015 02:00 13,1 C 82 % 1019,3 hPa 0,0 l/m 0,0 km/h N 10,1 C 13,1 C 0,0 km/h
12.09.2015 03:00 13,2 C 82 % 1019,1 hPa 0,0 l/m 0,0 km/h N 10,1 C 13,2 C 0,4 km/h
12.09.2015 04:00 13,1 C 81 % 1019,1 hPa 0,0 l/m 0,2 km/h N 9,9 C 13,1 C 0,8 km/h
12.09.2015 05:00 12,9 C 81 % 1019,2 hPa 0,0 l/m 0,0 km/h N 9,7 C 12,9 C 0,8 km/h
12.09.2015 06:00 12,7 C 81 % 1019,4 hPa 0,0 l/m 0,1 km/h N 9,5 C 12,7 C 1,6 km/h
12.09.2015 07:00 12,6 C 80 % 1019,8 hPa 0,0 l/m 0,2 km/h N 9,3 C 12,6 C 2,0 km/h
12.09.2015 08:00 12,8 C 80 % 1020,2 hPa 0,0 l/m 0,1 km/h N 9,4 C 12,8 C 2,8 km/h
12.09.2015 09:00 13,2 C 81 % 1020,5 hPa 0,0 l/m 0,1 km/h N 10,0 C 13,2 C 2,4 km/h
12.09.2015 10:00 14,0 C 82 % 1020,7 hPa 0,0 l/m 1,0 km/h N 10,9 C 14,0 C 5,6 km/h
12.09.2015 11:00 16,8 C 78 % 1020,4 hPa 0,0 l/m 1,3 km/h N 12,8 C 16,8 C 7,6 km/h
12.09.2015 12:00 18,8 C 72 % 1020,2 hPa 0,0 l/m 1,9 km/h N 13,6 C 18,8 C 9,3 km/h
12.09.2015 13:00 21,6 C 66 % 1019,8 hPa 0,0 l/m 0,8 km/h N 14,8 C 21,6 C 8,0 km/h
12.09.2015 14:00 22,5 C 62 % 1019,0 hPa 0,0 l/m 0,8 km/h N 14,8 C 22,5 C 6,8 km/h
12.09.2015 15:00 23,8 C 55 % 1018,3 hPa 0,0 l/m 1,0 km/h N 14,1 C 23,8 C 8,0 km/h
12.09.2015 16:00 23,9 C 52 % 1017,8 hPa 0,0 l/m 2,0 km/h N 13,5 C 23,9 C 11,3 km/h
12.09.2015 17:00 23,5 C 53 % 1017,6 hPa 0,0 l/m 1,5 km/h N 13,3 C 23,5 C 12,1 km/h
12.09.2015 18:00 22,6 C 56 % 1017,5 hPa 0,0 l/m 0,9 km/h N 13,2 C 22,6 C 8,0 km/h
12.09.2015 19:00 21,0 C 61 % 1017,6 hPa 0,0 l/m 0,8 km/h N 13,3 C 21,0 C 8,4 km/h
12.09.2015 20:00 19,8 C 66 % 1017,7 hPa 0,0 l/m 1,0 km/h N 13,1 C 19,8 C 8,4 km/h
12.09.2015 21:00 18,5 C 69 % 1018,1 hPa 0,0 l/m 0,0 km/h N 12,7 C 18,5 C 2,0 km/h
12.09.2015 22:00 16,2 C 75 % 1018,3 hPa 0,0 l/m 0,0 km/h N 11,7 C 16,2 C 0,0 km/h
12.09.2015 23:00 14,8 C 79 % 1018,0 hPa 0,0 l/m 0,0 km/h N 11,2 C 14,8 C 0,8 km/h
13.09.2015 00:00 14,3 C 81 % 1017,5 hPa 0,0 l/m 0,0 km/h N 11,0 C 14,3 C 0,0 km/h
13.09.2015 01:00 13,1 C 81 % 1017,3 hPa 0,0 l/m 0,0 km/h N 9,9 C 13,1 C 0,0 km/h
13.09.2015 02:00 11,9 C 82 % 1017,2 hPa 0,0 l/m 0,0 km/h N 8,9 C 11,9 C 0,8 km/h
13.09.2015 03:00 13,5 C 81 % 1016,9 hPa 0,0 l/m 1,0 km/h N 10,3 C 13,5 C 6,0 km/h
13.09.2015 04:00 13,2 C 82 % 1016,8 hPa 0,0 l/m 0,1 km/h N 10,2 C 13,2 C 1,6 km/h
13.09.2015 05:00 12,5 C 82 % 1016,8 hPa 0,0 l/m 0,3 km/h N 9,4 C 12,5 C 4,4 km/h
13.09.2015 06:00 12,7 C 81 % 1017,0 hPa 0,0 l/m 0,6 km/h N 9,5 C 12,7 C 5,2 km/h
13.09.2015 07:00 12,8 C 81 % 1017,3 hPa 0,0 l/m 0,4 km/h N 9,6 C 12,8 C 4,4 km/h
13.09.2015 08:00 13,8 C 81 % 1017,5 hPa 0,0 l/m 0,6 km/h N 10,5 C 13,8 C 4,4 km/h
13.09.2015 09:00 16,5 C 80 % 1017,3 hPa 0,0 l/m 1,4 km/h N 13,0 C 16,5 C 7,6 km/h
13.09.2015 10:00 20,0 C 69 % 1016,7 hPa 0,0 l/m 4,4 km/h N 14,0 C 20,0 C 15,3 km/h
13.09.2015 11:00 22,0 C 62 % 1016,1 hPa 0,0 l/m 4,8 km/h N 14,4 C 22,0 C 18,1 km/h
13.09.2015 12:00 23,0 C 58 % 1015,6 hPa 0,0 l/m 6,7 km/h N 14,2 C 22,8 C 17,3 km/h
13.09.2015 13:00 23,5 C 57 % 1015,2 hPa 0,0 l/m 8,1 km/h N 14,3 C 23,0 C 25,7 km/h
13.09.2015 14:00 23,9 C 55 % 1014,4 hPa 0,0 l/m 8,8 km/h N 14,2 C 23,2 C 25,3 km/h
13.09.2015 15:00 24,0 C 54 % 1013,7 hPa 0,0 l/m 8,5 km/h N 14,1 C 23,4 C 27,4 km/h
13.09.2015 16:00 24,1 C 53 % 1013,2 hPa 0,0 l/m 8,5 km/h N 13,8 C 23,6 C 23,7 km/h
13.09.2015 17:00 23,4 C 55 % 1012,9 hPa 0,0 l/m 7,9 km/h N 13,8 C 22,9 C 22,9 km/h
13.09.2015 18:00 22,3 C 59 % 1012,2 hPa 0,0 l/m 6,6 km/h N 14,0 C 22,2 C 20,5 km/h
13.09.2015 19:00 21,8 C 61 % 1012,0 hPa 0,0 l/m 6,6 km/h N 13,9 C 21,7 C 20,1 km/h
13.09.2015 20:00 20,8 C 64 % 1012,2 hPa 0,0 l/m 5,0 km/h N 13,7 C 20,8 C 20,5 km/h
13.09.2015 21:00 20,4 C 66 % 1012,0 hPa 0,0 l/m 5,1 km/h N 13,7 C 20,4 C 18,9 km/h
13.09.2015 22:00 19,9 C 68 % 1011,4 hPa 0,0 l/m 6,8 km/h N 13,8 C 19,7 C 19,3 km/h
13.09.2015 23:00 19,4 C 71 % 1011,0 hPa 0,0 l/m 2,0 km/h N 13,9 C 19,4 C 11,7 km/h
Min-Datum _ 08.09.15 08.09.15 13.09.15 - 08.09.15 - 08.09.15 07.09.15 08.09.15
_ Min-Zeit 23:45 17:15 23:45 - 19:30 - 23:00 05:30 19:30
Minimum _ 8,6 C 45 % 1010,7 hPa - 0,0 km/h - 5,0 C 8,3 C 0,0 km/h
Max-Datum _ 13.09.15 10.09.15 08.09.15 07.09.15 07.09.15 - 12.09.15 12.09.15 07.09.15
_ Max-Zeit 14:30 04:45 10:00 21:00 15:30 - 13:30 15:45 16:15
Maximum _ 24,4 C 83 % 1023,2 hPa 0,3 l/m 17,7 km/h
N
- 15,2 C 23,9 C 41,8 km/h
N
Durchschnitt _ 15,1 C 71 % 1019,7 hPa #0,8 l/m 3,4 km/h N 9,6 C 14,6 C 11,3 km/h